sensor_id;sensor_type;location;lat;lon;timestamp;temperature;humidity
32534;DHT22;18973;48.580;8.912;2023-05-10T00:02:25;14.50;99.90
32534;DHT22;18973;48.580;8.912;2023-05-10T00:04:51;14.50;99.90
32534;DHT22;18973;48.580;8.912;2023-05-10T00:07:17;14.40;99.90
32534;DHT22;18973;48.580;8.912;2023-05-10T00:09:43;14.40;99.90
32534;DHT22;18973;48.580;8.912;2023-05-10T00:12:09;14.50;99.90
32534;DHT22;18973;48.580;8.912;2023-05-10T00:14:35;14.50;99.90
32534;DHT22;18973;48.580;8.912;2023-05-10T00:17:00;14.50;99.90
32534;DHT22;18973;48.580;8.912;2023-05-10T00:19:26;14.50;99.90
32534;DHT22;18973;48.580;8.912;2023-05-10T00:21:52;14.40;99.90
32534;DHT22;18973;48.580;8.912;2023-05-10T00:24:18;14.50;99.90
32534;DHT22;18973;48.580;8.912;2023-05-10T00:26:43;14.50;99.90
32534;DHT22;18973;48.580;8.912;2023-05-10T00:29:09;14.50;99.90
32534;DHT22;18973;48.580;8.912;2023-05-10T00:31:35;14.50;99.90
32534;DHT22;18973;48.580;8.912;2023-05-10T00:34:00;14.50;99.90
32534;DHT22;18973;48.580;8.912;2023-05-10T00:36:26;14.60;99.90
32534;DHT22;18973;48.580;8.912;2023-05-10T00:38:53;14.60;99.90
32534;DHT22;18973;48.580;8.912;2023-05-10T00:41:18;14.60;99.90
32534;DHT22;18973;48.580;8.912;2023-05-10T00:43:44;14.60;99.90
32534;DHT22;18973;48.580;8.912;2023-05-10T00:46:10;14.60;99.90
32534;DHT22;18973;48.580;8.912;2023-05-10T00:48:36;14.60;99.90
32534;DHT22;18973;48.580;8.912;2023-05-10T00:51:02;14.60;99.90
32534;DHT22;18973;48.580;8.912;2023-05-10T00:53:29;14.60;99.90
32534;DHT22;18973;48.580;8.912;2023-05-10T00:55:56;14.60;99.90
32534;DHT22;18973;48.580;8.912;2023-05-10T00:58:22;14.60;99.90
32534;DHT22;18973;48.580;8.912;2023-05-10T01:00:49;14.60;99.90
32534;DHT22;18973;48.580;8.912;2023-05-10T01:03:16;14.40;99.90
32534;DHT22;18973;48.580;8.912;2023-05-10T01:05:42;14.40;99.90
32534;DHT22;18973;48.580;8.912;2023-05-10T01:08:08;14.40;99.90
32534;DHT22;18973;48.580;8.912;2023-05-10T01:10:34;14.40;99.90
32534;DHT22;18973;48.580;8.912;2023-05-10T01:13:01;14.40;99.90
32534;DHT22;18973;48.580;8.912;2023-05-10T01:15:28;14.40;99.90
32534;DHT22;18973;48.580;8.912;2023-05-10T01:17:55;14.30;99.90
32534;DHT22;18973;48.580;8.912;2023-05-10T01:20:22;14.20;99.90
32534;DHT22;18973;48.580;8.912;2023-05-10T01:36:31;13.90;99.90
32534;DHT22;18973;48.580;8.912;2023-05-10T01:42:21;13.70;99.90
32534;DHT22;18973;48.580;8.912;2023-05-10T01:45:11;13.80;99.90
32534;DHT22;18973;48.580;8.912;2023-05-10T01:47:47;13.80;99.90
32534;DHT22;18973;48.580;8.912;2023-05-10T01:50:19;13.70;99.90
32534;DHT22;18973;48.580;8.912;2023-05-10T01:52:58;13.70;99.90
32534;DHT22;18973;48.580;8.912;2023-05-10T01:55:27;13.50;99.90
32534;DHT22;18973;48.580;8.912;2023-05-10T01:58:03;13.70;99.90
32534;DHT22;18973;48.580;8.912;2023-05-10T02:00:30;13.60;99.90
32534;DHT22;18973;48.580;8.912;2023-05-10T02:02:57;13.40;99.90
32534;DHT22;18973;48.580;8.912;2023-05-10T02:05:24;13.40;99.90
32534;DHT22;18973;48.580;8.912;2023-05-10T02:07:50;13.30;99.90
32534;DHT22;18973;48.580;8.912;2023-05-10T02:10:17;13.40;99.90
32534;DHT22;18973;48.580;8.912;2023-05-10T02:12:45;13.30;99.90
32534;DHT22;18973;48.580;8.912;2023-05-10T02:15:17;13.50;99.90
32534;DHT22;18973;48.580;8.912;2023-05-10T02:17:45;13.50;99.90
32534;DHT22;18973;48.580;8.912;2023-05-10T02:20:12;13.60;99.90
32534;DHT22;18973;48.580;8.912;2023-05-10T02:22:39;13.60;99.90
32534;DHT22;18973;48.580;8.912;2023-05-10T02:25:07;13.70;99.90
32534;DHT22;18973;48.580;8.912;2023-05-10T02:27:33;13.60;99.90
32534;DHT22;18973;48.580;8.912;2023-05-10T02:30:00;13.60;99.90
32534;DHT22;18973;48.580;8.912;2023-05-10T02:32:27;13.60;99.90
32534;DHT22;18973;48.580;8.912;2023-05-10T02:34:53;13.50;99.90
32534;DHT22;18973;48.580;8.912;2023-05-10T02:37:20;13.60;99.90
32534;DHT22;18973;48.580;8.912;2023-05-10T02:39:50;13.60;99.90
32534;DHT22;18973;48.580;8.912;2023-05-10T02:42:18;13.60;99.90
32534;DHT22;18973;48.580;8.912;2023-05-10T02:44:50;13.60;99.90
32534;DHT22;18973;48.580;8.912;2023-05-10T02:47:17;13.60;99.90
32534;DHT22;18973;48.580;8.912;2023-05-10T02:49:43;13.60;99.90
32534;DHT22;18973;48.580;8.912;2023-05-10T02:52:09;13.70;99.90
32534;DHT22;18973;48.580;8.912;2023-05-10T02:54:43;13.70;99.90
32534;DHT22;18973;48.580;8.912;2023-05-10T02:57:16;13.60;99.90
32534;DHT22;18973;48.580;8.912;2023-05-10T02:59:45;13.70;99.90
32534;DHT22;18973;48.580;8.912;2023-05-10T03:02:12;13.70;99.90
32534;DHT22;18973;48.580;8.912;2023-05-10T03:04:38;13.70;99.90
32534;DHT22;18973;48.580;8.912;2023-05-10T03:07:04;13.70;99.90
32534;DHT22;18973;48.580;8.912;2023-05-10T03:09:31;13.80;99.90
32534;DHT22;18973;48.580;8.912;2023-05-10T03:12:04;13.70;99.90
32534;DHT22;18973;48.580;8.912;2023-05-10T03:14:45;13.70;99.90
32534;DHT22;18973;48.580;8.912;2023-05-10T03:19:59;13.70;99.90
32534;DHT22;18973;48.580;8.912;2023-05-10T03:22:36;13.60;99.90
32534;DHT22;18973;48.580;8.912;2023-05-10T03:25:06;13.60;99.90
32534;DHT22;18973;48.580;8.912;2023-05-10T03:27:32;13.40;99.90
32534;DHT22;18973;48.580;8.912;2023-05-10T03:29:59;13.30;99.90
32534;DHT22;18973;48.580;8.912;2023-05-10T03:32:29;13.30;99.90
32534;DHT22;18973;48.580;8.912;2023-05-10T03:34:57;13.20;99.90
32534;DHT22;18973;48.580;8.912;2023-05-10T03:37:22;13.10;99.90
32534;DHT22;18973;48.580;8.912;2023-05-10T03:39:48;12.90;99.90
32534;DHT22;18973;48.580;8.912;2023-05-10T03:42:14;13.10;99.90
32534;DHT22;18973;48.580;8.912;2023-05-10T03:44:39;13.10;99.90
32534;DHT22;18973;48.580;8.912;2023-05-10T03:47:05;13.10;99.90
32534;DHT22;18973;48.580;8.912;2023-05-10T03:49:31;13.20;99.90
32534;DHT22;18973;48.580;8.912;2023-05-10T03:51:57;13.10;99.90
32534;DHT22;18973;48.580;8.912;2023-05-10T03:54:23;12.90;99.90
32534;DHT22;18973;48.580;8.912;2023-05-10T03:56:48;12.80;99.90
32534;DHT22;18973;48.580;8.912;2023-05-10T03:59:14;12.80;99.90
32534;DHT22;18973;48.580;8.912;2023-05-10T04:01:40;12.70;99.90
32534;DHT22;18973;48.580;8.912;2023-05-10T04:04:06;12.90;99.90
32534;DHT22;18973;48.580;8.912;2023-05-10T04:06:31;13.10;99.90
32534;DHT22;18973;48.580;8.912;2023-05-10T04:08:57;13.20;99.90
32534;DHT22;18973;48.580;8.912;2023-05-10T04:11:25;13.20;99.90
32534;DHT22;18973;48.580;8.912;2023-05-10T04:13:51;13.10;99.90
32534;DHT22;18973;48.580;8.912;2023-05-10T04:16:17;13.10;99.90
32534;DHT22;18973;48.580;8.912;2023-05-10T04:18:42;13.10;99.90
32534;DHT22;18973;48.580;8.912;2023-05-10T04:21:12;13.20;99.90
32534;DHT22;18973;48.580;8.912;2023-05-10T04:23:39;13.10;99.90
32534;DHT22;18973;48.580;8.912;2023-05-10T04:26:04;13.20;99.90
32534;DHT22;18973;48.580;8.912;2023-05-10T04:28:30;13.30;99.90
32534;DHT22;18973;48.580;8.912;2023-05-10T04:31:07;13.40;99.90
32534;DHT22;18973;48.580;8.912;2023-05-10T04:33:33;13.50;99.90
32534;DHT22;18973;48.580;8.912;2023-05-10T04:35:59;13.30;99.90
32534;DHT22;18973;48.580;8.912;2023-05-10T04:38:26;13.40;99.90
32534;DHT22;18973;48.580;8.912;2023-05-10T04:40:52;13.40;99.90
32534;DHT22;18973;48.580;8.912;2023-05-10T04:43:18;13.40;99.90
32534;DHT22;18973;48.580;8.912;2023-05-10T04:45:44;13.30;99.90
32534;DHT22;18973;48.580;8.912;2023-05-10T04:48:09;13.40;99.90
32534;DHT22;18973;48.580;8.912;2023-05-10T04:50:35;13.40;99.90
32534;DHT22;18973;48.580;8.912;2023-05-10T04:53:01;13.40;99.90
32534;DHT22;18973;48.580;8.912;2023-05-10T04:55:26;13.40;99.90
32534;DHT22;18973;48.580;8.912;2023-05-10T04:57:53;13.40;99.90
32534;DHT22;18973;48.580;8.912;2023-05-10T05:00:20;13.40;99.90
32534;DHT22;18973;48.580;8.912;2023-05-10T05:02:46;13.40;99.90
32534;DHT22;18973;48.580;8.912;2023-05-10T05:05:12;13.40;99.90
32534;DHT22;18973;48.580;8.912;2023-05-10T05:07:38;13.40;99.90
32534;DHT22;18973;48.580;8.912;2023-05-10T05:10:05;13.40;99.90
32534;DHT22;18973;48.580;8.912;2023-05-10T05:12:31;13.50;99.90
32534;DHT22;18973;48.580;8.912;2023-05-10T05:14:57;13.40;99.90
32534;DHT22;18973;48.580;8.912;2023-05-10T05:17:23;13.40;99.90
32534;DHT22;18973;48.580;8.912;2023-05-10T05:19:48;13.50;99.90
32534;DHT22;18973;48.580;8.912;2023-05-10T05:22:14;13.50;99.90
32534;DHT22;18973;48.580;8.912;2023-05-10T05:24:39;13.40;99.90
32534;DHT22;18973;48.580;8.912;2023-05-10T05:27:05;13.30;99.90
32534;DHT22;18973;48.580;8.912;2023-05-10T05:29:31;13.50;99.90
32534;DHT22;18973;48.580;8.912;2023-05-10T05:31:57;13.50;99.90
32534;DHT22;18973;48.580;8.912;2023-05-10T05:34:23;13.60;99.90
32534;DHT22;18973;48.580;8.912;2023-05-10T05:36:49;13.40;99.90
32534;DHT22;18973;48.580;8.912;2023-05-10T05:39:15;13.40;99.90
32534;DHT22;18973;48.580;8.912;2023-05-10T05:41:41;13.30;99.90
32534;DHT22;18973;48.580;8.912;2023-05-10T05:44:07;13.30;99.90
32534;DHT22;18973;48.580;8.912;2023-05-10T05:46:33;13.30;99.90
32534;DHT22;18973;48.580;8.912;2023-05-10T05:48:59;13.30;99.90
32534;DHT22;18973;48.580;8.912;2023-05-10T05:51:24;13.30;99.90
32534;DHT22;18973;48.580;8.912;2023-05-10T05:53:50;13.40;99.90
32534;DHT22;18973;48.580;8.912;2023-05-10T05:56:16;13.50;99.90
32534;DHT22;18973;48.580;8.912;2023-05-10T05:58:43;13.50;99.90
32534;DHT22;18973;48.580;8.912;2023-05-10T06:01:09;13.50;99.90
32534;DHT22;18973;48.580;8.912;2023-05-10T06:03:35;13.40;99.90
32534;DHT22;18973;48.580;8.912;2023-05-10T06:06:01;13.40;99.90
32534;DHT22;18973;48.580;8.912;2023-05-10T06:08:26;13.50;99.90
32534;DHT22;18973;48.580;8.912;2023-05-10T06:10:52;13.50;99.90
32534;DHT22;18973;48.580;8.912;2023-05-10T06:13:18;13.60;99.90
32534;DHT22;18973;48.580;8.912;2023-05-10T06:15:43;13.60;99.90
32534;DHT22;18973;48.580;8.912;2023-05-10T06:18:09;13.70;99.90
32534;DHT22;18973;48.580;8.912;2023-05-10T06:20:35;13.80;99.90
32534;DHT22;18973;48.580;8.912;2023-05-10T06:23:00;13.80;99.90
32534;DHT22;18973;48.580;8.912;2023-05-10T06:25:26;13.90;99.90
32534;DHT22;18973;48.580;8.912;2023-05-10T06:27:52;13.90;99.90
32534;DHT22;18973;48.580;8.912;2023-05-10T06:30:22;14.00;99.90
32534;DHT22;18973;48.580;8.912;2023-05-10T06:32:52;14.10;99.90
32534;DHT22;18973;48.580;8.912;2023-05-10T06:35:19;14.00;99.90
32534;DHT22;18973;48.580;8.912;2023-05-10T06:37:44;14.00;99.90
32534;DHT22;18973;48.580;8.912;2023-05-10T06:40:10;14.00;99.90
32534;DHT22;18973;48.580;8.912;2023-05-10T06:42:36;14.00;99.90
32534;DHT22;18973;48.580;8.912;2023-05-10T06:45:02;14.00;99.90
32534;DHT22;18973;48.580;8.912;2023-05-10T06:47:27;14.00;99.90
32534;DHT22;18973;48.580;8.912;2023-05-10T06:49:53;14.00;99.90
32534;DHT22;18973;48.580;8.912;2023-05-10T06:52:19;13.90;99.90
32534;DHT22;18973;48.580;8.912;2023-05-10T06:54:44;13.80;99.90
32534;DHT22;18973;48.580;8.912;2023-05-10T06:57:10;13.70;99.90
32534;DHT22;18973;48.580;8.912;2023-05-10T06:59:36;13.70;99.90
32534;DHT22;18973;48.580;8.912;2023-05-10T07:02:02;13.70;99.90
32534;DHT22;18973;48.580;8.912;2023-05-10T07:04:27;13.80;99.90
32534;DHT22;18973;48.580;8.912;2023-05-10T07:06:53;13.90;99.90
32534;DHT22;18973;48.580;8.912;2023-05-10T07:09:19;13.90;99.90
32534;DHT22;18973;48.580;8.912;2023-05-10T07:11:44;13.90;99.90
32534;DHT22;18973;48.580;8.912;2023-05-10T07:14:10;14.00;99.90
32534;DHT22;18973;48.580;8.912;2023-05-10T07:16:36;14.00;99.90
32534;DHT22;18973;48.580;8.912;2023-05-10T07:19:01;14.00;99.90
32534;DHT22;18973;48.580;8.912;2023-05-10T07:21:27;14.00;99.90
32534;DHT22;18973;48.580;8.912;2023-05-10T07:23:54;14.10;99.90
32534;DHT22;18973;48.580;8.912;2023-05-10T07:26:20;14.10;99.90
32534;DHT22;18973;48.580;8.912;2023-05-10T07:28:46;14.10;99.90
32534;DHT22;18973;48.580;8.912;2023-05-10T07:31:12;14.00;99.90
32534;DHT22;18973;48.580;8.912;2023-05-10T07:33:38;14.00;99.90
32534;DHT22;18973;48.580;8.912;2023-05-10T07:36:04;14.10;99.90
32534;DHT22;18973;48.580;8.912;2023-05-10T07:38:29;14.20;99.90
32534;DHT22;18973;48.580;8.912;2023-05-10T07:40:55;14.20;99.90
32534;DHT22;18973;48.580;8.912;2023-05-10T07:43:20;14.10;99.90
32534;DHT22;18973;48.580;8.912;2023-05-10T07:45:46;14.20;99.90
32534;DHT22;18973;48.580;8.912;2023-05-10T07:48:12;14.30;99.90
32534;DHT22;18973;48.580;8.912;2023-05-10T07:50:37;14.20;99.90
32534;DHT22;18973;48.580;8.912;2023-05-10T07:53:03;14.20;99.90
32534;DHT22;18973;48.580;8.912;2023-05-10T07:55:29;14.30;99.90
32534;DHT22;18973;48.580;8.912;2023-05-10T07:57:55;14.30;99.90
32534;DHT22;18973;48.580;8.912;2023-05-10T08:00:20;14.40;99.90
32534;DHT22;18973;48.580;8.912;2023-05-10T08:02:46;14.60;99.90
32534;DHT22;18973;48.580;8.912;2023-05-10T08:05:12;14.50;99.90
32534;DHT22;18973;48.580;8.912;2023-05-10T08:07:38;14.70;99.90
32534;DHT22;18973;48.580;8.912;2023-05-10T08:10:05;14.70;99.90
32534;DHT22;18973;48.580;8.912;2023-05-10T08:12:31;14.80;99.90
32534;DHT22;18973;48.580;8.912;2023-05-10T08:14:56;14.80;99.90
32534;DHT22;18973;48.580;8.912;2023-05-10T08:17:22;14.90;99.90
32534;DHT22;18973;48.580;8.912;2023-05-10T08:19:48;14.90;99.90
32534;DHT22;18973;48.580;8.912;2023-05-10T08:22:13;14.90;99.90
32534;DHT22;18973;48.580;8.912;2023-05-10T08:24:39;14.80;99.90
32534;DHT22;18973;48.580;8.912;2023-05-10T08:27:08;14.90;99.90
32534;DHT22;18973;48.580;8.912;2023-05-10T08:29:34;15.10;99.90
32534;DHT22;18973;48.580;8.912;2023-05-10T08:32:00;15.10;99.90
32534;DHT22;18973;48.580;8.912;2023-05-10T08:34:26;15.10;99.90
32534;DHT22;18973;48.580;8.912;2023-05-10T08:36:52;15.20;99.90
32534;DHT22;18973;48.580;8.912;2023-05-10T08:39:18;15.20;99.90
32534;DHT22;18973;48.580;8.912;2023-05-10T08:41:44;15.30;99.90
32534;DHT22;18973;48.580;8.912;2023-05-10T08:44:12;15.40;99.90
32534;DHT22;18973;48.580;8.912;2023-05-10T08:46:41;15.50;99.90
32534;DHT22;18973;48.580;8.912;2023-05-10T08:49:16;15.50;99.90
32534;DHT22;18973;48.580;8.912;2023-05-10T08:51:49;15.50;99.90
32534;DHT22;18973;48.580;8.912;2023-05-10T08:54:16;15.60;99.90
32534;DHT22;18973;48.580;8.912;2023-05-10T08:56:44;15.60;99.90
32534;DHT22;18973;48.580;8.912;2023-05-10T08:59:10;15.70;99.90
32534;DHT22;18973;48.580;8.912;2023-05-10T09:01:37;15.60;99.90
32534;DHT22;18973;48.580;8.912;2023-05-10T09:04:03;15.60;99.90
32534;DHT22;18973;48.580;8.912;2023-05-10T09:06:29;15.60;99.90
32534;DHT22;18973;48.580;8.912;2023-05-10T09:08:55;15.50;99.90
32534;DHT22;18973;48.580;8.912;2023-05-10T09:11:21;15.50;99.90
32534;DHT22;18973;48.580;8.912;2023-05-10T09:13:48;15.60;99.90
32534;DHT22;18973;48.580;8.912;2023-05-10T09:16:15;15.70;99.90
32534;DHT22;18973;48.580;8.912;2023-05-10T09:18:41;15.80;99.90
32534;DHT22;18973;48.580;8.912;2023-05-10T09:21:06;15.70;99.90
32534;DHT22;18973;48.580;8.912;2023-05-10T09:23:32;15.70;99.90
32534;DHT22;18973;48.580;8.912;2023-05-10T09:26:07;15.90;99.90
32534;DHT22;18973;48.580;8.912;2023-05-10T09:31:17;16.20;99.90
32534;DHT22;18973;48.580;8.912;2023-05-10T09:33:44;16.20;99.90
32534;DHT22;18973;48.580;8.912;2023-05-10T09:36:11;16.30;99.90
32534;DHT22;18973;48.580;8.912;2023-05-10T09:41:20;16.10;99.90
32534;DHT22;18973;48.580;8.912;2023-05-10T09:43:47;16.20;99.90
32534;DHT22;18973;48.580;8.912;2023-05-10T09:46:13;16.20;99.90
32534;DHT22;18973;48.580;8.912;2023-05-10T09:48:43;16.20;99.90
32534;DHT22;18973;48.580;8.912;2023-05-10T09:51:10;16.20;99.90
32534;DHT22;18973;48.580;8.912;2023-05-10T09:53:36;16.20;99.90
32534;DHT22;18973;48.580;8.912;2023-05-10T09:56:02;16.40;99.90
32534;DHT22;18973;48.580;8.912;2023-05-10T09:58:28;16.70;99.90
32534;DHT22;18973;48.580;8.912;2023-05-10T10:00:53;16.80;99.90
32534;DHT22;18973;48.580;8.912;2023-05-10T10:03:20;16.70;99.90
32534;DHT22;18973;48.580;8.912;2023-05-10T10:05:47;16.70;99.90
32534;DHT22;18973;48.580;8.912;2023-05-10T10:08:13;16.90;99.90
32534;DHT22;18973;48.580;8.912;2023-05-10T10:10:40;16.90;99.90
32534;DHT22;18973;48.580;8.912;2023-05-10T10:13:06;16.70;99.90
32534;DHT22;18973;48.580;8.912;2023-05-10T10:15:33;16.70;99.90
32534;DHT22;18973;48.580;8.912;2023-05-10T10:17:59;16.60;99.90
32534;DHT22;18973;48.580;8.912;2023-05-10T10:20:26;16.50;99.90
32534;DHT22;18973;48.580;8.912;2023-05-10T10:22:52;16.50;99.90
32534;DHT22;18973;48.580;8.912;2023-05-10T10:25:19;16.40;99.90
32534;DHT22;18973;48.580;8.912;2023-05-10T10:30:42;16.00;99.90
32534;DHT22;18973;48.580;8.912;2023-05-10T10:35:53;15.40;99.90
32534;DHT22;18973;48.580;8.912;2023-05-10T10:38:19;15.20;99.90
32534;DHT22;18973;48.580;8.912;2023-05-10T10:40:44;15.10;99.90
32534;DHT22;18973;48.580;8.912;2023-05-10T10:43:27;15.00;99.90
32534;DHT22;18973;48.580;8.912;2023-05-10T10:46:15;14.90;99.90
32534;DHT22;18973;48.580;8.912;2023-05-10T10:48:49;14.70;99.90
32534;DHT22;18973;48.580;8.912;2023-05-10T10:51:15;14.70;99.90
32534;DHT22;18973;48.580;8.912;2023-05-10T10:53:41;14.70;99.90
32534;DHT22;18973;48.580;8.912;2023-05-10T10:56:13;14.80;99.90
32534;DHT22;18973;48.580;8.912;2023-05-10T10:58:41;15.00;99.90
32534;DHT22;18973;48.580;8.912;2023-05-10T11:01:19;15.10;99.90
32534;DHT22;18973;48.580;8.912;2023-05-10T11:06:34;15.20;99.90
32534;DHT22;18973;48.580;8.912;2023-05-10T11:09:10;15.10;99.90
32534;DHT22;18973;48.580;8.912;2023-05-10T11:11:49;15.00;99.90
32534;DHT22;18973;48.580;8.912;2023-05-10T11:14:20;15.10;99.90
32534;DHT22;18973;48.580;8.912;2023-05-10T11:16:47;15.00;99.90
32534;DHT22;18973;48.580;8.912;2023-05-10T11:19:16;15.00;99.90
32534;DHT22;18973;48.580;8.912;2023-05-10T11:22:12;15.10;99.90
32534;DHT22;18973;48.580;8.912;2023-05-10T11:24:56;15.00;99.90
32534;DHT22;18973;48.580;8.912;2023-05-10T11:27:23;14.90;99.90
32534;DHT22;18973;48.580;8.912;2023-05-10T11:29:52;14.80;99.90
32534;DHT22;18973;48.580;8.912;2023-05-10T11:32:19;14.90;99.90
32534;DHT22;18973;48.580;8.912;2023-05-10T11:34:47;14.90;99.90
32534;DHT22;18973;48.580;8.912;2023-05-10T11:37:13;14.80;99.90
32534;DHT22;18973;48.580;8.912;2023-05-10T11:39:45;14.90;99.90
32534;DHT22;18973;48.580;8.912;2023-05-10T11:42:12;14.90;99.90
32534;DHT22;18973;48.580;8.912;2023-05-10T11:44:38;14.90;99.90
32534;DHT22;18973;48.580;8.912;2023-05-10T11:47:05;14.90;99.90
32534;DHT22;18973;48.580;8.912;2023-05-10T11:49:30;14.90;99.90
32534;DHT22;18973;48.580;8.912;2023-05-10T11:52:06;14.80;99.90
32534;DHT22;18973;48.580;8.912;2023-05-10T11:54:32;14.70;99.90
32534;DHT22;18973;48.580;8.912;2023-05-10T11:57:00;14.70;99.90
32534;DHT22;18973;48.580;8.912;2023-05-10T11:59:26;14.50;99.90
32534;DHT22;18973;48.580;8.912;2023-05-10T12:01:51;14.50;99.90
32534;DHT22;18973;48.580;8.912;2023-05-10T12:04:17;14.40;99.90
32534;DHT22;18973;48.580;8.912;2023-05-10T12:06:43;14.50;99.90
32534;DHT22;18973;48.580;8.912;2023-05-10T12:09:09;14.40;99.90
32534;DHT22;18973;48.580;8.912;2023-05-10T12:11:40;14.40;99.90
32534;DHT22;18973;48.580;8.912;2023-05-10T12:14:06;14.50;99.90
32534;DHT22;18973;48.580;8.912;2023-05-10T12:16:33;14.60;99.90
32534;DHT22;18973;48.580;8.912;2023-05-10T12:19:00;14.60;99.90
32534;DHT22;18973;48.580;8.912;2023-05-10T12:21:27;14.70;99.90
32534;DHT22;18973;48.580;8.912;2023-05-10T12:24:00;14.70;99.90
32534;DHT22;18973;48.580;8.912;2023-05-10T12:26:28;14.80;99.90
32534;DHT22;18973;48.580;8.912;2023-05-10T12:28:54;14.90;99.90
32534;DHT22;18973;48.580;8.912;2023-05-10T12:31:20;14.90;99.90
32534;DHT22;18973;48.580;8.912;2023-05-10T12:33:46;14.90;99.90
32534;DHT22;18973;48.580;8.912;2023-05-10T12:36:15;14.90;99.90
32534;DHT22;18973;48.580;8.912;2023-05-10T12:38:45;14.90;99.90
32534;DHT22;18973;48.580;8.912;2023-05-10T12:41:16;14.90;99.90
32534;DHT22;18973;48.580;8.912;2023-05-10T12:43:41;15.00;99.90
32534;DHT22;18973;48.580;8.912;2023-05-10T12:46:14;15.10;99.90
32534;DHT22;18973;48.580;8.912;2023-05-10T12:48:41;15.20;99.90
32534;DHT22;18973;48.580;8.912;2023-05-10T12:51:08;15.20;99.90
32534;DHT22;18973;48.580;8.912;2023-05-10T12:53:35;15.30;99.90
32534;DHT22;18973;48.580;8.912;2023-05-10T12:56:01;15.20;99.90
32534;DHT22;18973;48.580;8.912;2023-05-10T12:58:27;15.20;99.90
32534;DHT22;18973;48.580;8.912;2023-05-10T13:00:53;15.20;99.90
32534;DHT22;18973;48.580;8.912;2023-05-10T13:03:19;15.30;99.90
32534;DHT22;18973;48.580;8.912;2023-05-10T13:05:45;15.40;99.90
32534;DHT22;18973;48.580;8.912;2023-05-10T13:08:10;15.40;99.90
32534;DHT22;18973;48.580;8.912;2023-05-10T13:10:36;15.40;99.90
32534;DHT22;18973;48.580;8.912;2023-05-10T13:13:02;15.60;99.90
32534;DHT22;18973;48.580;8.912;2023-05-10T13:15:28;15.60;99.90
32534;DHT22;18973;48.580;8.912;2023-05-10T13:17:54;15.60;99.90
32534;DHT22;18973;48.580;8.912;2023-05-10T13:20:20;15.60;99.90
32534;DHT22;18973;48.580;8.912;2023-05-10T13:22:46;15.70;99.90
32534;DHT22;18973;48.580;8.912;2023-05-10T13:25:12;15.70;99.90
32534;DHT22;18973;48.580;8.912;2023-05-10T13:27:39;15.80;99.90
32534;DHT22;18973;48.580;8.912;2023-05-10T13:30:06;15.90;99.90
32534;DHT22;18973;48.580;8.912;2023-05-10T13:32:31;15.80;99.90
32534;DHT22;18973;48.580;8.912;2023-05-10T13:34:58;15.80;99.90
32534;DHT22;18973;48.580;8.912;2023-05-10T13:37:23;15.80;99.90
32534;DHT22;18973;48.580;8.912;2023-05-10T13:39:49;15.90;99.90
32534;DHT22;18973;48.580;8.912;2023-05-10T13:42:15;16.00;99.90
32534;DHT22;18973;48.580;8.912;2023-05-10T13:44:41;16.10;99.90
32534;DHT22;18973;48.580;8.912;2023-05-10T13:47:06;16.00;99.90
32534;DHT22;18973;48.580;8.912;2023-05-10T13:49:32;16.10;99.90
32534;DHT22;18973;48.580;8.912;2023-05-10T13:51:59;16.20;99.90
32534;DHT22;18973;48.580;8.912;2023-05-10T13:54:31;16.10;99.90
32534;DHT22;18973;48.580;8.912;2023-05-10T13:56:57;16.10;99.90
32534;DHT22;18973;48.580;8.912;2023-05-10T13:59:23;16.10;99.90
32534;DHT22;18973;48.580;8.912;2023-05-10T14:01:48;16.20;99.90
32534;DHT22;18973;48.580;8.912;2023-05-10T14:04:14;16.30;99.90
32534;DHT22;18973;48.580;8.912;2023-05-10T14:06:40;16.30;99.90
32534;DHT22;18973;48.580;8.912;2023-05-10T14:09:05;16.30;99.90
32534;DHT22;18973;48.580;8.912;2023-05-10T14:11:31;16.30;99.90
32534;DHT22;18973;48.580;8.912;2023-05-10T14:13:57;16.30;99.90
32534;DHT22;18973;48.580;8.912;2023-05-10T14:16:23;16.30;99.90
32534;DHT22;18973;48.580;8.912;2023-05-10T14:18:49;16.40;99.90
32534;DHT22;18973;48.580;8.912;2023-05-10T14:21:15;16.50;99.90
32534;DHT22;18973;48.580;8.912;2023-05-10T14:23:40;16.40;99.90
32534;DHT22;18973;48.580;8.912;2023-05-10T14:26:06;16.40;99.90
32534;DHT22;18973;48.580;8.912;2023-05-10T14:28:32;16.30;99.90
32534;DHT22;18973;48.580;8.912;2023-05-10T14:30:58;16.20;99.90
32534;DHT22;18973;48.580;8.912;2023-05-10T14:33:24;16.10;99.90
32534;DHT22;18973;48.580;8.912;2023-05-10T14:35:50;16.10;99.90
32534;DHT22;18973;48.580;8.912;2023-05-10T14:38:16;16.10;99.90
32534;DHT22;18973;48.580;8.912;2023-05-10T14:40:42;16.30;99.90
32534;DHT22;18973;48.580;8.912;2023-05-10T14:43:08;16.40;99.90
32534;DHT22;18973;48.580;8.912;2023-05-10T14:45:34;16.50;99.90
32534;DHT22;18973;48.580;8.912;2023-05-10T14:48:00;16.50;99.90
32534;DHT22;18973;48.580;8.912;2023-05-10T14:50:26;16.60;99.90
32534;DHT22;18973;48.580;8.912;2023-05-10T14:52:52;16.60;99.90
32534;DHT22;18973;48.580;8.912;2023-05-10T14:55:17;16.70;99.90
32534;DHT22;18973;48.580;8.912;2023-05-10T14:57:43;16.60;99.90
32534;DHT22;18973;48.580;8.912;2023-05-10T15:00:10;16.70;99.90
32534;DHT22;18973;48.580;8.912;2023-05-10T15:02:36;16.70;99.90
32534;DHT22;18973;48.580;8.912;2023-05-10T15:05:02;16.80;99.90
32534;DHT22;18973;48.580;8.912;2023-05-10T15:07:27;16.80;99.90
32534;DHT22;18973;48.580;8.912;2023-05-10T15:09:53;16.80;99.90
32534;DHT22;18973;48.580;8.912;2023-05-10T15:12:19;16.80;99.90
32534;DHT22;18973;48.580;8.912;2023-05-10T15:14:45;16.90;99.90
32534;DHT22;18973;48.580;8.912;2023-05-10T15:17:12;16.90;99.90
32534;DHT22;18973;48.580;8.912;2023-05-10T15:19:37;16.80;99.90
32534;DHT22;18973;48.580;8.912;2023-05-10T15:22:04;16.80;99.90
32534;DHT22;18973;48.580;8.912;2023-05-10T15:24:31;16.70;99.90
32534;DHT22;18973;48.580;8.912;2023-05-10T15:26:56;16.60;99.90
32534;DHT22;18973;48.580;8.912;2023-05-10T15:29:22;16.60;99.90
32534;DHT22;18973;48.580;8.912;2023-05-10T15:31:49;16.60;99.90
32534;DHT22;18973;48.580;8.912;2023-05-10T15:34:16;16.60;99.90
32534;DHT22;18973;48.580;8.912;2023-05-10T15:36:43;16.80;99.90
32534;DHT22;18973;48.580;8.912;2023-05-10T15:39:08;16.80;99.90
32534;DHT22;18973;48.580;8.912;2023-05-10T15:41:35;16.90;99.90
32534;DHT22;18973;48.580;8.912;2023-05-10T15:44:01;16.90;99.90
32534;DHT22;18973;48.580;8.912;2023-05-10T15:46:28;16.90;99.90
32534;DHT22;18973;48.580;8.912;2023-05-10T15:48:54;17.00;99.90
32534;DHT22;18973;48.580;8.912;2023-05-10T15:51:20;17.00;99.90
32534;DHT22;18973;48.580;8.912;2023-05-10T15:53:46;17.00;99.90
32534;DHT22;18973;48.580;8.912;2023-05-10T15:56:12;16.90;99.90
32534;DHT22;18973;48.580;8.912;2023-05-10T15:58:38;16.90;99.90
32534;DHT22;18973;48.580;8.912;2023-05-10T16:01:04;16.80;99.90
32534;DHT22;18973;48.580;8.912;2023-05-10T16:03:35;16.80;99.90